sensor_id;sensor_type;location;lat;lon;timestamp;pressure;altitude;pressure_sealevel;temperature;humidity
64298;BME280;50639;53.270;7.956;2023-08-21T00:00:03;102200.56;;;16.00;nan
64298;BME280;50639;53.270;7.956;2023-08-21T00:02:29;102204.28;;;15.96;nan
64298;BME280;50639;53.270;7.956;2023-08-21T00:04:55;102208.03;;;15.92;nan
64298;BME280;50639;53.270;7.956;2023-08-21T00:07:20;102208.28;;;15.87;nan
64298;BME280;50639;53.270;7.956;2023-08-21T00:09:46;102210.22;;;15.84;nan
64298;BME280;50639;53.270;7.956;2023-08-21T00:12:11;102201.75;;;15.80;nan
64298;BME280;50639;53.270;7.956;2023-08-21T00:14:37;102208.00;;;15.77;nan
64298;BME280;50639;53.270;7.956;2023-08-21T00:17:02;102208.84;;;15.78;nan
64298;BME280;50639;53.270;7.956;2023-08-21T00:19:29;102206.22;;;15.78;nan
64298;BME280;50639;53.270;7.956;2023-08-21T00:21:54;102211.47;;;15.78;nan
64298;BME280;50639;53.270;7.956;2023-08-21T00:24:19;102211.47;;;15.78;nan
64298;BME280;50639;53.270;7.956;2023-08-21T00:26:45;102221.06;;;15.77;nan
64298;BME280;50639;53.270;7.956;2023-08-21T00:29:12;102216.84;;;15.75;nan
64298;BME280;50639;53.270;7.956;2023-08-21T00:31:37;102221.34;;;15.73;nan
64298;BME280;50639;53.270;7.956;2023-08-21T00:34:03;102221.25;;;15.74;nan
64298;BME280;50639;53.270;7.956;2023-08-21T00:36:28;102220.50;;;15.72;nan
64298;BME280;50639;53.270;7.956;2023-08-21T00:38:54;102217.22;;;15.69;nan
64298;BME280;50639;53.270;7.956;2023-08-21T00:41:19;102219.94;;;15.67;nan
64298;BME280;50639;53.270;7.956;2023-08-21T00:43:45;102219.38;;;15.62;nan
64298;BME280;50639;53.270;7.956;2023-08-21T00:46:10;102222.75;;;15.64;nan
64298;BME280;50639;53.270;7.956;2023-08-21T00:48:36;102226.38;;;15.62;nan
64298;BME280;50639;53.270;7.956;2023-08-21T00:51:03;102229.44;;;15.54;nan
64298;BME280;50639;53.270;7.956;2023-08-21T00:53:29;102234.38;;;15.29;nan
64298;BME280;50639;53.270;7.956;2023-08-21T00:55:55;102237.97;;;15.26;nan
64298;BME280;50639;53.270;7.956;2023-08-21T00:58:20;102238.38;;;15.34;nan
64298;BME280;50639;53.270;7.956;2023-08-21T01:00:47;102227.78;;;15.37;nan
64298;BME280;50639;53.270;7.956;2023-08-21T01:03:14;102231.13;;;15.39;nan
64298;BME280;50639;53.270;7.956;2023-08-21T01:05:41;102234.44;;;15.27;nan
64298;BME280;50639;53.270;7.956;2023-08-21T01:08:21;102230.56;;;15.34;nan
64298;BME280;50639;53.270;7.956;2023-08-21T01:10:53;102241.22;;;15.46;nan
64298;BME280;50639;53.270;7.956;2023-08-21T01:13:31;102238.31;;;15.50;nan
64298;BME280;50639;53.270;7.956;2023-08-21T01:15:59;102248.59;;;15.53;nan
64298;BME280;50639;53.270;7.956;2023-08-21T01:18:26;102249.47;;;15.54;nan
64298;BME280;50639;53.270;7.956;2023-08-21T01:20:53;102258.81;;;15.58;nan
64298;BME280;50639;53.270;7.956;2023-08-21T01:23:35;102256.03;;;15.61;nan
64298;BME280;50639;53.270;7.956;2023-08-21T01:26:02;102257.53;;;15.65;nan
64298;BME280;50639;53.270;7.956;2023-08-21T01:28:30;102252.09;;;15.54;nan
64298;BME280;50639;53.270;7.956;2023-08-21T01:31:35;102251.47;;;15.49;nan
64298;BME280;50639;53.270;7.956;2023-08-21T01:34:05;102252.31;;;15.49;nan
64298;BME280;50639;53.270;7.956;2023-08-21T01:36:31;102256.38;;;15.55;nan
64298;BME280;50639;53.270;7.956;2023-08-21T01:38:57;102260.50;;;15.59;nan
64298;BME280;50639;53.270;7.956;2023-08-21T01:41:23;102259.66;;;15.58;nan
64298;BME280;50639;53.270;7.956;2023-08-21T01:43:49;102262.38;;;15.57;nan
64298;BME280;50639;53.270;7.956;2023-08-21T01:46:15;102264.88;;;15.58;nan
64298;BME280;50639;53.270;7.956;2023-08-21T01:48:40;102265.78;;;15.57;nan
64298;BME280;50639;53.270;7.956;2023-08-21T01:51:06;102264.28;;;15.53;nan
64298;BME280;50639;53.270;7.956;2023-08-21T01:53:31;102268.91;;;15.48;nan
64298;BME280;50639;53.270;7.956;2023-08-21T01:55:56;102265.47;;;15.48;nan
64298;BME280;50639;53.270;7.956;2023-08-21T01:58:22;102265.72;;;15.43;nan
64298;BME280;50639;53.270;7.956;2023-08-21T02:00:48;102263.03;;;15.44;nan
64298;BME280;50639;53.270;7.956;2023-08-21T02:03:14;102263.19;;;15.41;nan
64298;BME280;50639;53.270;7.956;2023-08-21T02:05:40;102261.78;;;15.36;nan
64298;BME280;50639;53.270;7.956;2023-08-21T02:08:08;102265.41;;;15.33;nan
64298;BME280;50639;53.270;7.956;2023-08-21T02:10:34;102261.41;;;15.28;nan
64298;BME280;50639;53.270;7.956;2023-08-21T02:13:00;102256.50;;;15.22;nan
64298;BME280;50639;53.270;7.956;2023-08-21T02:15:25;102257.47;;;15.21;nan
64298;BME280;50639;53.270;7.956;2023-08-21T02:17:51;102265.38;;;15.19;nan
64298;BME280;50639;53.270;7.956;2023-08-21T02:20:16;102268.16;;;15.16;nan
64298;BME280;50639;53.270;7.956;2023-08-21T02:22:42;102264.13;;;15.11;nan
64298;BME280;50639;53.270;7.956;2023-08-21T02:25:07;102265.47;;;15.02;nan
64298;BME280;50639;53.270;7.956;2023-08-21T02:27:33;102259.75;;;14.95;nan
64298;BME280;50639;53.270;7.956;2023-08-21T02:29:58;102265.91;;;14.94;nan
64298;BME280;50639;53.270;7.956;2023-08-21T02:32:24;102264.22;;;14.93;nan
64298;BME280;50639;53.270;7.956;2023-08-21T02:34:49;102258.31;;;14.90;nan
64298;BME280;50639;53.270;7.956;2023-08-21T02:37:14;102263.69;;;14.87;nan
64298;BME280;50639;53.270;7.956;2023-08-21T02:39:40;102260.50;;;14.82;nan
64298;BME280;50639;53.270;7.956;2023-08-21T02:42:05;102264.13;;;14.79;nan
64298;BME280;50639;53.270;7.956;2023-08-21T02:44:31;102262.63;;;14.75;nan
64298;BME280;50639;53.270;7.956;2023-08-21T02:46:56;102262.69;;;14.74;nan
64298;BME280;50639;53.270;7.956;2023-08-21T02:49:22;102257.72;;;14.69;nan
64298;BME280;50639;53.270;7.956;2023-08-21T02:51:48;102255.13;;;14.69;nan
64298;BME280;50639;53.270;7.956;2023-08-21T02:54:13;102255.97;;;14.69;nan
64298;BME280;50639;53.270;7.956;2023-08-21T02:56:39;102257.84;;;14.67;nan
64298;BME280;50639;53.270;7.956;2023-08-21T02:59:04;102251.16;;;14.62;nan
64298;BME280;50639;53.270;7.956;2023-08-21T03:01:29;102259.25;;;14.57;nan
64298;BME280;50639;53.270;7.956;2023-08-21T03:03:55;102255.19;;;14.52;nan
64298;BME280;50639;53.270;7.956;2023-08-21T03:06:20;102258.81;;;14.49;nan
64298;BME280;50639;53.270;7.956;2023-08-21T03:08:46;102252.91;;;14.46;nan
64298;BME280;50639;53.270;7.956;2023-08-21T03:11:11;102261.66;;;14.45;nan
64298;BME280;50639;53.270;7.956;2023-08-21T03:13:37;102259.97;;;14.44;nan
64298;BME280;50639;53.270;7.956;2023-08-21T03:16:03;102251.41;;;14.42;nan
64298;BME280;50639;53.270;7.956;2023-08-21T03:18:31;102262.84;;;14.39;nan
64298;BME280;50639;53.270;7.956;2023-08-21T03:20:57;102252.47;;;14.38;nan
64298;BME280;50639;53.270;7.956;2023-08-21T03:23:22;102255.22;;;14.35;nan
64298;BME280;50639;53.270;7.956;2023-08-21T03:25:48;102255.22;;;14.35;nan
64298;BME280;50639;53.270;7.956;2023-08-21T03:28:13;102251.09;;;14.30;nan
64298;BME280;50639;53.270;7.956;2023-08-21T03:30:39;102249.75;;;14.23;nan
64298;BME280;50639;53.270;7.956;2023-08-21T03:33:05;102249.06;;;14.20;nan
64298;BME280;50639;53.270;7.956;2023-08-21T03:35:32;102253.69;;;14.15;nan
64298;BME280;50639;53.270;7.956;2023-08-21T03:37:58;102248.47;;;14.15;nan
64298;BME280;50639;53.270;7.956;2023-08-21T03:40:23;102249.31;;;14.15;nan
64298;BME280;50639;53.270;7.956;2023-08-21T03:42:50;102249.31;;;14.15;nan
64298;BME280;50639;53.270;7.956;2023-08-21T03:45:16;102247.78;;;14.11;nan
64298;BME280;50639;53.270;7.956;2023-08-21T03:47:42;102241.88;;;14.08;nan
64298;BME280;50639;53.270;7.956;2023-08-21T03:50:15;102250.63;;;14.07;nan
64298;BME280;50639;53.270;7.956;2023-08-21T03:52:40;102251.63;;;14.04;nan
64298;BME280;50639;53.270;7.956;2023-08-21T03:55:07;102243.03;;;14.02;nan
64298;BME280;50639;53.270;7.956;2023-08-21T03:57:33;102250.28;;;13.97;nan
64298;BME280;50639;53.270;7.956;2023-08-21T03:59:58;102251.25;;;13.94;nan
64298;BME280;50639;53.270;7.956;2023-08-21T04:02:23;102249.56;;;13.93;nan
64298;BME280;50639;53.270;7.956;2023-08-21T04:04:49;102242.09;;;13.87;nan
64298;BME280;50639;53.270;7.956;2023-08-21T04:07:14;102243.00;;;13.86;nan
64298;BME280;50639;53.270;7.956;2023-08-21T04:09:40;102238.63;;;13.87;nan
64298;BME280;50639;53.270;7.956;2023-08-21T04:12:06;102239.63;;;13.84;nan
64298;BME280;50639;53.270;7.956;2023-08-21T04:14:32;102244.97;;;13.81;nan
64298;BME280;50639;53.270;7.956;2023-08-21T04:16:57;102243.22;;;13.82;nan
64298;BME280;50639;53.270;7.956;2023-08-21T04:19:22;102243.47;;;13.77;nan
64298;BME280;50639;53.270;7.956;2023-08-21T04:21:48;102248.81;;;13.74;nan
64298;BME280;50639;53.270;7.956;2023-08-21T04:24:13;102242.94;;;13.71;nan
64298;BME280;50639;53.270;7.956;2023-08-21T04:26:39;102254.34;;;13.68;nan
64298;BME280;50639;53.270;7.956;2023-08-21T04:29:04;102246.47;;;13.70;nan
64298;BME280;50639;53.270;7.956;2023-08-21T04:31:30;102255.88;;;13.72;nan
64298;BME280;50639;53.270;7.956;2023-08-21T04:33:55;102254.81;;;13.76;nan
64298;BME280;50639;53.270;7.956;2023-08-21T04:36:21;102252.97;;;13.78;nan
64298;BME280;50639;53.270;7.956;2023-08-21T04:38:48;102259.25;;;13.74;nan
64298;BME280;50639;53.270;7.956;2023-08-21T04:41:14;102266.47;;;13.69;nan
64298;BME280;50639;53.270;7.956;2023-08-21T04:43:43;102256.19;;;13.66;nan
64298;BME280;50639;53.270;7.956;2023-08-21T04:46:09;102260.53;;;13.66;nan
64298;BME280;50639;53.270;7.956;2023-08-21T04:48:37;102257.09;;;13.65;nan
64298;BME280;50639;53.270;7.956;2023-08-21T04:51:02;102254.94;;;13.73;nan
64298;BME280;50639;53.270;7.956;2023-08-21T04:53:28;102252.34;;;13.73;nan
64298;BME280;50639;53.270;7.956;2023-08-21T04:55:58;102251.03;;;13.82;nan
64298;BME280;50639;53.270;7.956;2023-08-21T04:58:25;102254.72;;;13.95;nan
64298;BME280;50639;53.270;7.956;2023-08-21T05:00:50;102258.31;;;13.92;nan
64298;BME280;50639;53.270;7.956;2023-08-21T05:03:15;102260.31;;;13.87;nan
64298;BME280;50639;53.270;7.956;2023-08-21T05:05:52;102259.53;;;13.85;nan
64298;BME280;50639;53.270;7.956;2023-08-21T05:08:17;102262.16;;;13.85;nan
64298;BME280;50639;53.270;7.956;2023-08-21T05:10:43;102263.91;;;13.85;nan
64298;BME280;50639;53.270;7.956;2023-08-21T05:13:08;102258.56;;;13.88;nan
64298;BME280;50639;53.270;7.956;2023-08-21T05:15:34;102264.44;;;13.91;nan
64298;BME280;50639;53.270;7.956;2023-08-21T05:18:00;102256.53;;;13.93;nan
64298;BME280;50639;53.270;7.956;2023-08-21T05:20:26;102260.59;;;13.99;nan
64298;BME280;50639;53.270;7.956;2023-08-21T05:22:51;102268.88;;;14.07;nan
64298;BME280;50639;53.270;7.956;2023-08-21T05:25:17;102267.63;;;14.14;nan
64298;BME280;50639;53.270;7.956;2023-08-21T05:27:43;102266.47;;;14.19;nan
64298;BME280;50639;53.270;7.956;2023-08-21T05:30:09;102271.34;;;14.25;nan
64298;BME280;50639;53.270;7.956;2023-08-21T05:32:36;102265.81;;;14.31;nan
64298;BME280;50639;53.270;7.956;2023-08-21T05:35:01;102278.47;;;14.39;nan
64298;BME280;50639;53.270;7.956;2023-08-21T05:37:26;102271.16;;;14.46;nan
64298;BME280;50639;53.270;7.956;2023-08-21T05:39:53;102270.75;;;14.53;nan
64298;BME280;50639;53.270;7.956;2023-08-21T05:42:19;102276.25;;;14.64;nan
64298;BME280;50639;53.270;7.956;2023-08-21T05:44:44;102277.25;;;14.78;nan
64298;BME280;50639;53.270;7.956;2023-08-21T05:47:10;102273.22;;;14.88;nan
64298;BME280;50639;53.270;7.956;2023-08-21T05:49:35;102278.00;;;14.95;nan
64298;BME280;50639;53.270;7.956;2023-08-21T05:52:01;102277.41;;;15.06;nan
64298;BME280;50639;53.270;7.956;2023-08-21T05:54:26;102281.34;;;15.13;nan
64298;BME280;50639;53.270;7.956;2023-08-21T05:56:52;102276.56;;;15.21;nan
64298;BME280;50639;53.270;7.956;2023-08-21T05:59:30;102276.22;;;15.27;nan
64298;BME280;50639;53.270;7.956;2023-08-21T06:01:58;102280.47;;;15.44;nan
64298;BME280;50639;53.270;7.956;2023-08-21T06:04:24;102284.00;;;15.59;nan
64298;BME280;50639;53.270;7.956;2023-08-21T06:06:55;102279.84;;;15.70;nan
64298;BME280;50639;53.270;7.956;2023-08-21T06:09:21;102292.44;;;15.78;nan
64298;BME280;50639;53.270;7.956;2023-08-21T06:11:47;102299.66;;;15.89;nan
64298;BME280;50639;53.270;7.956;2023-08-21T06:14:12;102297.34;;;15.98;nan
64298;BME280;50639;53.270;7.956;2023-08-21T06:16:37;102296.59;;;16.10;nan
64298;BME280;50639;53.270;7.956;2023-08-21T06:19:03;102293.44;;;16.19;nan
64298;BME280;50639;53.270;7.956;2023-08-21T06:21:29;102292.69;;;16.32;nan
64298;BME280;50639;53.270;7.956;2023-08-21T06:23:54;102296.22;;;16.45;nan
64298;BME280;50639;53.270;7.956;2023-08-21T06:26:19;102295.31;;;16.60;nan
64298;BME280;50639;53.270;7.956;2023-08-21T06:28:46;102292.78;;;16.73;nan
64298;BME280;50639;53.270;7.956;2023-08-21T06:31:13;102299.97;;;16.83;nan
64298;BME280;50639;53.270;7.956;2023-08-21T06:33:39;102301.06;;;16.93;nan
64298;BME280;50639;53.270;7.956;2023-08-21T06:36:04;102291.59;;;17.05;nan
64298;BME280;50639;53.270;7.956;2023-08-21T06:38:30;102292.78;;;17.14;nan
64298;BME280;50639;53.270;7.956;2023-08-21T06:40:55;102297.53;;;17.21;nan
64298;BME280;50639;53.270;7.956;2023-08-21T06:43:21;102295.88;;;17.33;nan
64298;BME280;50639;53.270;7.956;2023-08-21T06:45:48;102296.84;;;17.45;nan
64298;BME280;50639;53.270;7.956;2023-08-21T06:48:14;102297.09;;;17.54;nan
64298;BME280;50639;53.270;7.956;2023-08-21T06:50:39;102292.97;;;17.64;nan
64298;BME280;50639;53.270;7.956;2023-08-21T06:53:05;102298.63;;;17.71;nan
64298;BME280;50639;53.270;7.956;2023-08-21T06:55:30;102304.28;;;17.78;nan
64298;BME280;50639;53.270;7.956;2023-08-21T06:57:56;102296.22;;;17.81;nan
64298;BME280;50639;53.270;7.956;2023-08-21T07:00:21;102306.09;;;17.90;nan
64298;BME280;50639;53.270;7.956;2023-08-21T07:02:46;102299.28;;;18.00;nan
64298;BME280;50639;53.270;7.956;2023-08-21T07:05:12;102302.22;;;18.08;nan
64298;BME280;50639;53.270;7.956;2023-08-21T07:07:37;102301.06;;;18.12;nan
64298;BME280;50639;53.270;7.956;2023-08-21T07:10:03;102298.97;;;18.17;nan
64298;BME280;50639;53.270;7.956;2023-08-21T07:12:28;102301.50;;;18.19;nan
64298;BME280;50639;53.270;7.956;2023-08-21T07:14:54;102301.19;;;18.36;nan
64298;BME280;50639;53.270;7.956;2023-08-21T07:17:19;102292.56;;;18.47;nan
64298;BME280;50639;53.270;7.956;2023-08-21T07:19:45;102291.91;;;18.56;nan
64298;BME280;50639;53.270;7.956;2023-08-21T07:22:10;102293.41;;;18.60;nan
64298;BME280;50639;53.270;7.956;2023-08-21T07:24:35;102297.25;;;18.67;nan
64298;BME280;50639;53.270;7.956;2023-08-21T07:27:01;102292.63;;;18.70;nan
64298;BME280;50639;53.270;7.956;2023-08-21T07:29:26;102288.41;;;18.81;nan
64298;BME280;50639;53.270;7.956;2023-08-21T07:31:51;102293.00;;;18.90;nan
64298;BME280;50639;53.270;7.956;2023-08-21T07:34:17;102289.09;;;18.95;nan
64298;BME280;50639;53.270;7.956;2023-08-21T07:36:42;102286.63;;;19.05;nan
64298;BME280;50639;53.270;7.956;2023-08-21T07:39:08;102296.78;;;19.09;nan
64298;BME280;50639;53.270;7.956;2023-08-21T07:41:33;102294.06;;;19.11;nan
64298;BME280;50639;53.270;7.956;2023-08-21T07:43:59;102294.44;;;19.17;nan
64298;BME280;50639;53.270;7.956;2023-08-21T07:46:24;102298.31;;;19.25;nan
64298;BME280;50639;53.270;7.956;2023-08-21T07:48:49;102297.66;;;19.34;nan
64298;BME280;50639;53.270;7.956;2023-08-21T07:51:15;102299.34;;;19.46;nan
64298;BME280;50639;53.270;7.956;2023-08-21T07:53:40;102293.69;;;19.52;nan
64298;BME280;50639;53.270;7.956;2023-08-21T07:56:06;102295.00;;;19.58;nan
64298;BME280;50639;53.270;7.956;2023-08-21T07:58:31;102299.47;;;19.68;nan
64298;BME280;50639;53.270;7.956;2023-08-21T08:00:57;102297.22;;;19.75;nan
64298;BME280;50639;53.270;7.956;2023-08-21T08:03:22;102300.47;;;19.78;nan
64298;BME280;50639;53.270;7.956;2023-08-21T08:05:48;102299.47;;;19.79;nan
64298;BME280;50639;53.270;7.956;2023-08-21T08:08:13;102302.41;;;19.87;nan
64298;BME280;50639;53.270;7.956;2023-08-21T08:10:40;102299.03;;;19.85;nan
64298;BME280;50639;53.270;7.956;2023-08-21T08:13:06;102305.47;;;19.81;nan
64298;BME280;50639;53.270;7.956;2023-08-21T08:15:33;102306.94;;;19.97;nan
64298;BME280;50639;53.270;7.956;2023-08-21T08:18:00;102293.81;;;20.08;nan
64298;BME280;50639;53.270;7.956;2023-08-21T08:20:26;102294.03;;;20.16;nan
64298;BME280;50639;53.270;7.956;2023-08-21T08:22:51;102295.97;;;20.25;nan
64298;BME280;50639;53.270;7.956;2023-08-21T08:25:17;102298.59;;;20.25;nan
64298;BME280;50639;53.270;7.956;2023-08-21T08:27:43;102302.91;;;20.26;nan
64298;BME280;50639;53.270;7.956;2023-08-21T08:30:09;102294.66;;;20.31;nan
64298;BME280;50639;53.270;7.956;2023-08-21T08:32:35;102299.22;;;20.28;nan
64298;BME280;50639;53.270;7.956;2023-08-21T08:35:00;102291.34;;;20.40;nan
64298;BME280;50639;53.270;7.956;2023-08-21T08:37:25;102290.75;;;20.47;nan
64298;BME280;50639;53.270;7.956;2023-08-21T08:39:51;102296.84;;;20.48;nan
64298;BME280;50639;53.270;7.956;2023-08-21T08:42:16;102292.88;;;20.53;nan
64298;BME280;50639;53.270;7.956;2023-08-21T08:44:43;102287.84;;;20.61;nan
64298;BME280;50639;53.270;7.956;2023-08-21T08:47:11;102291.44;;;20.72;nan
64298;BME280;50639;53.270;7.956;2023-08-21T08:49:37;102287.34;;;20.79;nan
64298;BME280;50639;53.270;7.956;2023-08-21T08:52:03;102286.03;;;20.73;nan
64298;BME280;50639;53.270;7.956;2023-08-21T08:54:30;102293.66;;;20.87;nan
64298;BME280;50639;53.270;7.956;2023-08-21T08:56:56;102301.22;;;20.92;nan
64298;BME280;50639;53.270;7.956;2023-08-21T08:59:21;102294.59;;;20.97;nan
64298;BME280;50639;53.270;7.956;2023-08-21T09:01:47;102298.03;;;21.09;nan
64298;BME280;50639;53.270;7.956;2023-08-21T09:04:12;102298.16;;;21.19;nan
64298;BME280;50639;53.270;7.956;2023-08-21T09:06:38;102288.59;;;21.18;nan
64298;BME280;50639;53.270;7.956;2023-08-21T09:09:04;102286.78;;;21.18;nan
64298;BME280;50639;53.270;7.956;2023-08-21T09:11:30;102281.00;;;21.24;nan
64298;BME280;50639;53.270;7.956;2023-08-21T09:13:58;102285.97;;;21.38;nan
64298;BME280;50639;53.270;7.956;2023-08-21T09:16:24;102288.56;;;21.50;nan
64298;BME280;50639;53.270;7.956;2023-08-21T09:18:55;102286.25;;;21.56;nan
64298;BME280;50639;53.270;7.956;2023-08-21T09:21:25;102286.84;;;21.60;nan
64298;BME280;50639;53.270;7.956;2023-08-21T09:24:01;102292.94;;;21.60;nan
64298;BME280;50639;53.270;7.956;2023-08-21T09:26:31;102285.81;;;21.72;nan
64298;BME280;50639;53.270;7.956;2023-08-21T09:29:03;102287.53;;;21.83;nan
64298;BME280;50639;53.270;7.956;2023-08-21T09:31:31;102279.47;;;21.84;nan
64298;BME280;50639;53.270;7.956;2023-08-21T09:34:00;102279.22;;;21.87;nan
64298;BME280;50639;53.270;7.956;2023-08-21T09:36:27;102280.25;;;21.96;nan
64298;BME280;50639;53.270;7.956;2023-08-21T09:38:52;102275.81;;;21.96;nan
64298;BME280;50639;53.270;7.956;2023-08-21T09:41:22;102280.06;;;22.08;nan
64298;BME280;50639;53.270;7.956;2023-08-21T09:43:48;102282.06;;;21.95;nan
64298;BME280;50639;53.270;7.956;2023-08-21T09:46:15;102278.53;;;22.06;nan
64298;BME280;50639;53.270;7.956;2023-08-21T09:48:44;102282.69;;;22.08;nan
64298;BME280;50639;53.270;7.956;2023-08-21T09:51:11;102279.53;;;22.14;nan
64298;BME280;50639;53.270;7.956;2023-08-21T09:53:37;102281.22;;;22.16;nan
64298;BME280;50639;53.270;7.956;2023-08-21T09:56:02;102280.09;;;22.18;nan
64298;BME280;50639;53.270;7.956;2023-08-21T09:58:29;102272.69;;;22.33;nan
64298;BME280;50639;53.270;7.956;2023-08-21T10:00:57;102270.47;;;22.38;nan
64298;BME280;50639;53.270;7.956;2023-08-21T10:03:23;102268.06;;;22.35;nan
64298;BME280;50639;53.270;7.956;2023-08-21T10:05:48;102264.44;;;22.26;nan
64298;BME280;50639;53.270;7.956;2023-08-21T10:08:16;102272.84;;;22.41;nan
64298;BME280;50639;53.270;7.956;2023-08-21T10:10:41;102264.38;;;22.47;nan
64298;BME280;50639;53.270;7.956;2023-08-21T10:13:08;102270.75;;;22.44;nan
64298;BME280;50639;53.270;7.956;2023-08-21T10:15:34;102271.72;;;22.43;nan
64298;BME280;50639;53.270;7.956;2023-08-21T10:18:21;102267.56;;;22.41;nan
64298;BME280;50639;53.270;7.956;2023-08-21T10:20:49;102260.56;;;22.30;nan
64298;BME280;50639;53.270;7.956;2023-08-21T10:23:29;102273.34;;;22.35;nan
64298;BME280;50639;53.270;7.956;2023-08-21T10:26:00;102271.91;;;22.51;nan
64298;BME280;50639;53.270;7.956;2023-08-21T10:28:50;102266.91;;;22.58;nan
64298;BME280;50639;53.270;7.956;2023-08-21T10:31:39;102268.31;;;22.72;nan
64298;BME280;50639;53.270;7.956;2023-08-21T10:34:06;102263.50;;;22.77;nan
64298;BME280;50639;53.270;7.956;2023-08-21T10:39:21;102257.25;;;22.87;nan
64298;BME280;50639;53.270;7.956;2023-08-21T10:42:03;102266.59;;;22.92;nan
64298;BME280;50639;53.270;7.956;2023-08-21T10:47:23;102269.53;;;23.17;nan
64298;BME280;50639;53.270;7.956;2023-08-21T10:49:54;102270.75;;;23.23;nan
64298;BME280;50639;53.270;7.956;2023-08-21T10:52:31;102273.00;;;23.18;nan
64298;BME280;50639;53.270;7.956;2023-08-21T10:54:59;102265.06;;;23.18;nan
64298;BME280;50639;53.270;7.956;2023-08-21T10:57:26;102265.91;;;23.28;nan
64298;BME280;50639;53.270;7.956;2023-08-21T11:00:00;102261.16;;;23.32;nan
64298;BME280;50639;53.270;7.956;2023-08-21T11:02:29;102266.44;;;23.41;nan
64298;BME280;50639;53.270;7.956;2023-08-21T11:04:55;102268.53;;;23.47;nan
64298;BME280;50639;53.270;7.956;2023-08-21T11:07:22;102276.06;;;23.52;nan
64298;BME280;50639;53.270;7.956;2023-08-21T11:09:50;102266.06;;;23.55;nan
64298;BME280;50639;53.270;7.956;2023-08-21T11:12:17;102262.00;;;23.32;nan
64298;BME280;50639;53.270;7.956;2023-08-21T11:14:43;102270.47;;;23.45;nan
64298;BME280;50639;53.270;7.956;2023-08-21T11:17:10;102254.34;;;23.58;nan
64298;BME280;50639;53.270;7.956;2023-08-21T11:19:36;102262.44;;;23.56;nan
64298;BME280;50639;53.270;7.956;2023-08-21T11:22:03;102249.31;;;23.74;nan
64298;BME280;50639;53.270;7.956;2023-08-21T11:27:16;102255.78;;;23.89;nan
64298;BME280;50639;53.270;7.956;2023-08-21T11:29:44;102256.59;;;23.99;nan
64298;BME280;50639;53.270;7.956;2023-08-21T11:32:12;102257.72;;;23.97;nan
64298;BME280;50639;53.270;7.956;2023-08-21T11:34:37;102256.84;;;24.06;nan
64298;BME280;50639;53.270;7.956;2023-08-21T11:37:04;102258.84;;;23.94;nan
64298;BME280;50639;53.270;7.956;2023-08-21T11:39:50;102270.47;;;24.11;nan
64298;BME280;50639;53.270;7.956;2023-08-21T11:42:18;102264.88;;;24.24;nan
64298;BME280;50639;53.270;7.956;2023-08-21T11:44:51;102264.25;;;24.40;nan
64298;BME280;50639;53.270;7.956;2023-08-21T11:47:19;102261.06;;;24.36;nan
64298;BME280;50639;53.270;7.956;2023-08-21T11:49:46;102270.25;;;24.42;nan
64298;BME280;50639;53.270;7.956;2023-08-21T11:52:21;102259.97;;;24.19;nan
64298;BME280;50639;53.270;7.956;2023-08-21T11:54:51;102263.63;;;24.18;nan
64298;BME280;50639;53.270;7.956;2023-08-21T11:57:17;102255.59;;;24.37;nan
64298;BME280;50639;53.270;7.956;2023-08-21T11:59:43;102256.81;;;24.53;nan
64298;BME280;50639;53.270;7.956;2023-08-21T12:02:22;102257.13;;;24.40;nan
64298;BME280;50639;53.270;7.956;2023-08-21T12:05:00;102256.94;;;24.24;nan
64298;BME280;50639;53.270;7.956;2023-08-21T12:07:26;102265.00;;;23.76;nan
64298;BME280;50639;53.270;7.956;2023-08-21T12:09:52;102263.75;;;23.80;nan
64298;BME280;50639;53.270;7.956;2023-08-21T12:12:17;102255.72;;;23.72;nan
64298;BME280;50639;53.270;7.956;2023-08-21T12:14:48;102254.50;;;23.56;nan
64298;BME280;50639;53.270;7.956;2023-08-21T12:17:13;102262.69;;;23.63;nan
64298;BME280;50639;53.270;7.956;2023-08-21T12:19:39;102249.03;;;23.68;nan
64298;BME280;50639;53.270;7.956;2023-08-21T12:22:04;102255.84;;;23.70;nan
64298;BME280;50639;53.270;7.956;2023-08-21T12:24:30;102253.59;;;23.75;nan
64298;BME280;50639;53.270;7.956;2023-08-21T12:26:56;102247.19;;;23.78;nan
64298;BME280;50639;53.270;7.956;2023-08-21T12:29:21;102242.91;;;23.67;nan
64298;BME280;50639;53.270;7.956;2023-08-21T12:31:47;102240.38;;;23.75;nan
64298;BME280;50639;53.270;7.956;2023-08-21T12:34:12;102246.91;;;23.81;nan
64298;BME280;50639;53.270;7.956;2023-08-21T12:36:38;102242.94;;;23.94;nan
64298;BME280;50639;53.270;7.956;2023-08-21T12:39:04;102235.31;;;24.28;nan
64298;BME280;50639;53.270;7.956;2023-08-21T12:41:30;102241.00;;;24.33;nan
64298;BME280;50639;53.270;7.956;2023-08-21T12:43:55;102245.28;;;24.44;nan
64298;BME280;50639;53.270;7.956;2023-08-21T12:46:21;102236.50;;;24.44;nan
64298;BME280;50639;53.270;7.956;2023-08-21T12:48:46;102236.31;;;24.45;nan
64298;BME280;50639;53.270;7.956;2023-08-21T12:51:12;102240.91;;;24.53;nan
64298;BME280;50639;53.270;7.956;2023-08-21T12:53:37;102233.13;;;24.87;nan
64298;BME280;50639;53.270;7.956;2023-08-21T12:56:03;102229.47;;;24.97;nan
64298;BME280;50639;53.270;7.956;2023-08-21T12:58:29;102226.41;;;25.10;nan
64298;BME280;50639;53.270;7.956;2023-08-21T13:00:55;102235.25;;;25.19;nan
64298;BME280;50639;53.270;7.956;2023-08-21T13:03:20;102234.56;;;25.17;nan
64298;BME280;50639;53.270;7.956;2023-08-21T13:05:46;102225.56;;;25.09;nan
64298;BME280;50639;53.270;7.956;2023-08-21T13:08:11;102222.53;;;24.87;nan
64298;BME280;50639;53.270;7.956;2023-08-21T13:10:37;102219.19;;;24.67;nan
64298;BME280;50639;53.270;7.956;2023-08-21T13:13:02;102221.22;;;24.91;nan
64298;BME280;50639;53.270;7.956;2023-08-21T13:15:28;102223.97;;;25.17;nan